Tarrant West's Hourly Summary for Tuesday, July 10, 2018
Hour Temp
(f)
RH
(%)
Solar Rad.
(MJ/m2)
Rainfall
(in)
Wind
(mph)
7/10/2018 12:00 AM 76 80 0 0 4.74
7/10/2018 1:00 AM 75 81 0 0 6.26
7/10/2018 2:00 AM 74 81 0 0 6.04
7/10/2018 3:00 AM 72 84 0 0 5.09
7/10/2018 4:00 AM 72 87 0 0 4.96
7/10/2018 5:00 AM 71 89 0 0 4.92
7/10/2018 6:00 AM 72 90 0.01 0 4.65
7/10/2018 7:00 AM 73 88 0.15 0 4.74
7/10/2018 8:00 AM 76 80 0.68 0 3.82
7/10/2018 9:00 AM 81 67 1.57 0 4.29
7/10/2018 10:00 AM 84 61 1.7 0 5.41
7/10/2018 11:00 AM 86 57 2.36 0 5.57
7/10/2018 12:00 PM 90 48 3.37 0 4.63
7/10/2018 1:00 PM 85 57 2.14 0 11.11
7/10/2018 2:00 PM 79 70 0.32 0 4.74
7/10/2018 3:00 PM 78 82 0.36 0.01 2.64
7/10/2018 4:00 PM 79 81 0.61 0.03 5.14
7/10/2018 5:00 PM 81 75 1.04 0 5.94
7/10/2018 6:00 PM 83 67 0.85 0 4.79
7/10/2018 7:00 PM 85 60 0.69 0 5.09
7/10/2018 8:00 PM 83 64 0.1 0 4.27
7/10/2018 9:00 PM 80 75 0 0 4.7
7/10/2018 10:00 PM 79 78 0 0 4.89
7/10/2018 11:00 PM 78 77 0 0 4.47
Data Summary 78 74 15.95 0.04 5.12